createdAt,value
2023-03-08T00:02:29.468Z,95689.88
2023-03-08T00:07:33.213Z,95702.41
2023-03-08T00:12:36.504Z,95697.03
2023-03-08T00:17:41.442Z,95706.97
2023-03-08T00:22:44.731Z,95712.91
2023-03-08T00:27:48.092Z,95721.31
2023-03-08T00:32:52.716Z,95715.78
2023-03-08T00:37:55.982Z,95729.63
2023-03-08T00:42:59.127Z,95740.06
2023-03-08T00:48:03.936Z,95743.47
2023-03-08T00:53:07.269Z,95744.19
2023-03-08T00:58:10.480Z,95745.50
2023-03-08T01:03:15.661Z,95743.84
2023-03-08T01:08:20.165Z,95743.47
2023-03-08T01:13:23.412Z,95743.19
2023-03-08T01:18:28.580Z,95741.13
2023-03-08T01:23:33.414Z,95736.13
2023-03-08T01:28:36.979Z,95734.94
2023-03-08T01:33:41.914Z,95722.47
2023-03-08T01:38:45.821Z,95725.25
2023-03-08T01:43:49.539Z,95727.25
2023-03-08T01:49:00.876Z,95709.66
2023-03-08T01:54:09.487Z,95727.03
2023-03-08T01:59:13.664Z,95719.44
2023-03-08T02:04:18.302Z,95723.72
2023-03-08T02:09:23.433Z,95713.25
2023-03-08T02:14:30.139Z,95713.03
2023-03-08T02:19:42.575Z,95716.88
2023-03-08T02:24:47.882Z,95710.56
2023-03-08T02:29:51.338Z,95704.66
2023-03-08T02:34:54.577Z,95702.44
2023-03-08T02:39:59.369Z,95711.44
2023-03-08T02:45:02.709Z,95702.84
2023-03-08T02:50:07.483Z,95698.13
2023-03-08T02:55:12.472Z,95697.66
2023-03-08T03:00:16.515Z,95694.25
2023-03-08T03:05:19.892Z,95692.31
2023-03-08T03:10:24.629Z,95693.28
2023-03-08T03:15:27.726Z,95696.97
2023-03-08T03:20:33.991Z,95702.19
2023-03-08T03:25:39.673Z,95713.44
2023-03-08T03:30:46.568Z,95708.22
2023-03-08T03:35:51.062Z,95691.31
2023-03-08T03:41:03.625Z,95695.72
2023-03-08T03:46:11.564Z,95674.69
2023-03-08T03:51:17.967Z,95675.00
2023-03-08T03:56:28.815Z,95682.19
2023-03-08T04:01:36.188Z,95675.78
2023-03-08T04:06:51.678Z,95676.72
2023-03-08T04:12:02.666Z,95686.25
2023-03-08T04:17:06.658Z,95693.28
2023-03-08T04:22:17.530Z,95692.47
2023-03-08T04:27:27.274Z,95690.69
2023-03-08T04:32:32.251Z,95686.63
2023-03-08T04:37:37.110Z,95684.81
2023-03-08T04:42:46.735Z,95682.59
2023-03-08T04:47:53.628Z,95673.47
2023-03-08T04:52:57.120Z,95670.72
2023-03-08T04:58:02.605Z,95668.56
2023-03-08T05:03:08.022Z,95666.53
2023-03-08T05:08:11.730Z,95665.38
2023-03-08T05:13:17.093Z,95657.56
2023-03-08T05:18:20.991Z,95665.41
2023-03-08T05:23:27.088Z,95660.56
2023-03-08T05:28:35.167Z,95663.41
2023-03-08T05:33:39.303Z,95647.00
2023-03-08T05:38:43.144Z,95647.25
2023-03-08T05:43:49.346Z,95648.59
2023-03-08T05:48:53.378Z,95646.31
2023-03-08T05:53:56.760Z,95630.94
2023-03-08T05:59:01.890Z,95630.38
2023-03-08T06:04:06.773Z,95632.56
2023-03-08T06:09:13.431Z,95639.56
2023-03-08T06:14:20.488Z,95634.72
2023-03-08T06:19:23.851Z,95627.72
2023-03-08T06:24:29.270Z,95629.69
2023-03-08T06:29:36.303Z,95634.53
2023-03-08T06:34:40.304Z,95629.31
2023-03-08T06:39:43.715Z,95624.47
2023-03-08T06:44:48.465Z,95613.72
2023-03-08T06:49:53.609Z,95614.09
2023-03-08T06:54:56.907Z,95610.47
2023-03-08T07:00:01.852Z,95602.25
2023-03-08T07:05:05.833Z,95602.69
2023-03-08T07:10:11.037Z,95597.97
2023-03-08T07:15:18.868Z,95596.03
2023-03-08T07:20:23.260Z,95591.94
2023-03-08T07:25:26.472Z,95589.09
2023-03-08T07:30:31.136Z,95583.41
2023-03-08T07:35:34.348Z,95573.06
2023-03-08T07:40:37.562Z,95572.59
2023-03-08T07:45:42.121Z,95567.28
2023-03-08T07:50:45.504Z,95562.16
2023-03-08T07:55:48.610Z,95562.75
2023-03-08T08:00:53.412Z,95557.53
2023-03-08T08:05:56.591Z,95546.47
2023-03-08T08:11:00.520Z,95539.81
2023-03-08T08:16:07.175Z,95535.81
2023-03-08T08:21:12.871Z,95536.16
2023-03-08T08:26:17.958Z,95525.31
2023-03-08T08:31:24.934Z,95511.66
2023-03-08T08:36:29.077Z,95500.06
2023-03-08T08:41:32.503Z,95488.03
2023-03-08T08:46:38.180Z,95491.03
2023-03-08T08:51:41.597Z,95484.41
2023-03-08T08:56:52.862Z,95480.13
2023-03-08T09:01:57.687Z,95469.09
2023-03-08T09:07:00.722Z,95454.66
2023-03-08T09:12:03.956Z,95466.44
2023-03-08T09:17:08.838Z,95455.75
2023-03-08T09:22:12.551Z,95445.56
2023-03-08T09:27:15.837Z,95444.78
2023-03-08T09:32:20.656Z,95432.25
2023-03-08T09:37:24.370Z,95426.03
2023-03-08T09:42:30.764Z,95422.06
2023-03-08T09:47:46.637Z,95403.72
2023-03-08T09:52:54.862Z,95388.41
2023-03-08T09:58:00.525Z,95388.69
2023-03-08T10:03:28.411Z,95372.97
2023-03-08T10:08:35.057Z,95363.75
2023-03-08T10:13:40.242Z,95353.81
2023-03-08T10:18:49.777Z,95336.56
2023-03-08T10:23:59.952Z,95330.84
2023-03-08T10:29:03.469Z,95321.09
2023-03-08T10:34:14.258Z,95318.47
2023-03-08T10:39:17.646Z,95323.06
2023-03-08T10:44:34.012Z,95309.69
2023-03-08T10:49:38.634Z,95306.38
2023-03-08T10:54:42.284Z,95302.38
2023-03-08T10:59:51.331Z,95283.91
2023-03-08T11:04:58.434Z,95284.69
2023-03-08T11:10:19.340Z,95274.38
2023-03-08T11:15:22.574Z,95264.94
2023-03-08T11:20:32.920Z,95254.13
2023-03-08T11:25:43.422Z,95239.66
2023-03-08T11:30:58.274Z,95243.47
2023-03-08T11:36:12.977Z,95241.91
2023-03-08T11:41:24.024Z,95221.22
2023-03-08T11:46:33.856Z,95222.47
2023-03-08T11:51:44.555Z,95221.50
2023-03-08T11:56:52.481Z,95226.63
2023-03-08T12:02:02.803Z,95204.59
2023-03-08T12:07:16.200Z,95204.81
2023-03-08T12:12:24.813Z,95179.56
2023-03-08T12:17:33.424Z,95170.34
2023-03-08T12:22:46.024Z,95166.88
2023-03-08T12:27:54.456Z,95163.81
2023-03-08T12:33:00.279Z,95153.94
2023-03-08T12:38:08.846Z,95155.94
2023-03-08T12:43:13.867Z,95153.81
2023-03-08T12:48:21.939Z,95145.72
2023-03-08T12:53:33.100Z,95141.81
2023-03-08T12:58:44.032Z,95141.03
2023-03-08T13:03:47.946Z,95126.75
2023-03-08T13:08:57.144Z,95128.25
2023-03-08T13:14:02.007Z,95120.41
2023-03-08T13:19:20.528Z,95122.81
2023-03-08T13:24:36.812Z,95123.41
2023-03-08T13:29:44.545Z,95128.16
2023-03-08T13:35:00.808Z,95115.41
2023-03-08T13:40:08.764Z,95109.31
2023-03-08T13:45:18.660Z,95101.69
2023-03-08T13:50:31.447Z,95090.97
2023-03-08T13:55:40.159Z,95093.06
2023-03-08T14:00:43.493Z,95092.25
2023-03-08T14:05:46.885Z,95092.88
2023-03-08T14:10:55.028Z,95082.75
2023-03-08T14:16:00.795Z,95091.50
2023-03-08T14:21:07.325Z,95082.69
2023-03-08T14:26:30.987Z,95088.06
2023-03-08T14:31:34.655Z,95079.56
2023-03-08T14:36:37.904Z,95078.44
2023-03-08T14:41:42.566Z,95068.44
2023-03-08T14:46:46.186Z,95074.91
2023-03-08T14:51:49.771Z,95066.81
2023-03-08T14:56:54.856Z,95067.34
2023-03-08T15:01:58.046Z,95057.59
2023-03-08T15:07:01.669Z,95042.84
2023-03-08T15:12:09.354Z,95033.19
2023-03-08T15:17:12.654Z,95049.97
2023-03-08T15:22:17.691Z,95039.59
2023-03-08T15:27:29.195Z,95048.38
2023-03-08T15:32:32.782Z,95037.59
2023-03-08T15:37:35.975Z,95042.31
2023-03-08T15:42:40.566Z,95043.56
2023-03-08T15:47:43.845Z,95039.63
2023-03-08T15:52:47.337Z,95028.72
2023-03-08T15:57:52.713Z,95028.41
2023-03-08T16:02:56.714Z,95021.44
2023-03-08T16:08:02.162Z,95013.28
2023-03-08T16:13:07.254Z,95004.72
2023-03-08T16:18:10.489Z,94989.19
2023-03-08T16:23:15.200Z,94991.66
2023-03-08T16:28:20.058Z,94998.28
2023-03-08T16:33:24.236Z,94987.63
2023-03-08T16:38:27.696Z,94985.66
2023-03-08T16:43:45.729Z,94991.91
2023-03-08T16:48:50.578Z,95006.56
2023-03-08T16:53:54.652Z,94998.50
2023-03-08T16:59:01.058Z,95005.81
2023-03-08T17:04:04.292Z,95010.09
2023-03-08T17:09:07.923Z,95009.03
2023-03-08T17:14:14.885Z,95004.31
2023-03-08T17:19:18.588Z,94996.81
2023-03-08T17:24:23.701Z,94991.19
2023-03-08T17:29:28.686Z,94990.09
2023-03-08T17:34:32.150Z,94998.31
2023-03-08T17:39:36.170Z,94999.41
2023-03-08T17:44:41.529Z,94999.69
2023-03-08T17:49:45.197Z,95000.56
2023-03-08T17:54:49.562Z,94999.97
2023-03-08T17:59:55.255Z,95006.88
2023-03-08T18:04:58.506Z,95013.19
2023-03-08T18:10:02.975Z,95019.78
2023-03-08T18:15:09.842Z,95020.88
2023-03-08T18:20:13.585Z,95014.84
2023-03-08T18:25:17.355Z,95005.91
2023-03-08T18:30:22.220Z,95002.03
2023-03-08T18:35:25.471Z,95011.00
2023-03-08T18:40:30.129Z,95003.84
2023-03-08T18:45:34.964Z,94994.47
2023-03-08T18:50:38.407Z,94983.34
2023-03-08T18:55:42.381Z,94984.72
2023-03-08T19:00:47.267Z,94991.75
2023-03-08T19:05:51.202Z,94974.53
2023-03-08T19:10:55.309Z,94967.13
2023-03-08T19:16:01.567Z,94978.41
2023-03-08T19:21:05.720Z,94985.16
2023-03-08T19:26:31.215Z,94985.53
2023-03-08T19:31:37.706Z,94992.13
2023-03-08T19:36:43.956Z,94991.75
2023-03-08T19:41:49.324Z,94987.88
2023-03-08T19:46:55.379Z,94987.88
2023-03-08T19:52:01.847Z,94995.72
2023-03-08T19:57:05.688Z,94994.47
2023-03-08T20:02:13.416Z,94996.53
2023-03-08T20:07:20.973Z,94994.91
2023-03-08T20:12:24.443Z,94994.22
2023-03-08T20:17:32.196Z,94987.63
2023-03-08T20:22:35.953Z,94987.44
2023-03-08T20:27:40.641Z,94979.50
2023-03-08T20:32:45.482Z,94989.81
2023-03-08T20:37:49.537Z,94996.44
2023-03-08T20:42:55.308Z,94987.34
2023-03-08T20:48:00.812Z,94999.97
2023-03-08T20:53:04.489Z,95016.19
2023-03-08T20:58:07.820Z,95019.69
2023-03-08T21:03:12.588Z,95018.44
2023-03-08T21:08:17.174Z,95007.53
2023-03-08T21:13:20.884Z,95005.75
2023-03-08T21:18:26.005Z,94998.06
2023-03-08T21:23:29.322Z,94996.28
2023-03-08T21:28:32.513Z,94980.59
2023-03-08T21:33:37.221Z,94987.88
2023-03-08T21:38:40.807Z,94980.31
2023-03-08T21:43:44.120Z,94982.22
2023-03-08T21:48:48.801Z,94971.47
2023-03-08T21:53:52.138Z,94974.81
2023-03-08T21:58:56.303Z,94966.50
2023-03-08T22:04:02.360Z,94969.72
2023-03-08T22:09:05.932Z,94967.78
2023-03-08T22:14:09.454Z,94961.75
2023-03-08T22:19:13.928Z,94958.44
2023-03-08T22:24:17.106Z,94953.81
2023-03-08T22:29:20.545Z,94945.25
2023-03-08T22:34:25.152Z,94948.25
2023-03-08T22:39:28.990Z,94931.50
2023-03-08T22:44:32.280Z,94928.88
2023-03-08T22:49:36.844Z,94922.28
2023-03-08T22:54:40.783Z,94906.63
2023-03-08T22:59:45.292Z,94904.44
2023-03-08T23:04:50.009Z,94902.38
2023-03-08T23:09:53.320Z,94889.31
2023-03-08T23:14:57.610Z,94879.81
2023-03-08T23:20:02.031Z,94872.13
2023-03-08T23:25:06.028Z,94869.25
2023-03-08T23:30:12.773Z,94863.47
2023-03-08T23:35:17.548Z,94846.03
2023-03-08T23:40:21.035Z,94841.50
2023-03-08T23:45:24.283Z,94847.38
2023-03-08T23:50:28.679Z,94854.81
2023-03-08T23:55:32.055Z,94847.81
